Time;durP1;ratioP1;P1;durP2;ratioP2;P2;SDS_P1;SDS_P2;PMS_P1;PMS_P2;Temp;Humidity;BMP_temperature;BMP_pressure;BME280_temperature;BME280_humidity;BME280_pressure;Samples;Min_cycle;Max_cycle;Signal;HPM_P1;HPM_P2
2022/01/03 00:01:06;;;;;;;4.43;2.07;;;11.00;99.90;;;;;;5095264;28;20289;-74
2022/01/03 00:03:33;;;;;;;5.03;2.60;;;11.00;99.90;;;;;;5094807;28;20239;-74
2022/01/03 00:06:01;;;;;;;3.63;2.20;;;11.00;99.90;;;;;;5095903;28;20195;-72
2022/01/03 00:08:30;;;;;;;5.73;2.00;;;11.00;99.90;;;;;;5095889;28;20193;-73
2022/01/03 00:10:58;;;;;;;7.40;2.63;;;11.00;99.90;;;;;;5095732;28;20196;-73
2022/01/03 00:13:25;;;;;;;5.30;2.37;;;11.00;99.90;;;;;;5095443;28;20266;-73
2022/01/03 00:15:55;;;;;;;5.27;2.63;;;11.00;99.90;;;;;;5095548;28;20193;-74
2022/01/03 00:18:22;;;;;;;5.60;2.43;;;11.00;99.90;;;;;;5097272;28;20188;-74
2022/01/03 00:20:56;;;;;;;7.30;2.67;;;11.00;99.90;;;;;;5097688;28;20234;-73
2022/01/03 00:23:27;;;;;;;6.83;2.37;;;11.00;99.90;;;;;;5098819;28;20258;-73
2022/01/03 00:26:00;;;;;;;5.60;2.63;;;11.00;99.90;;;;;;5097002;28;20210;-72
2022/01/03 00:28:33;;;;;;;3.70;2.43;;;10.90;99.90;;;;;;5096843;28;20548;-72
2022/01/03 00:31:00;;;;;;;8.07;2.70;;;10.90;99.90;;;;;;5099861;28;20275;-73
2022/01/03 00:33:27;;;;;;;4.63;2.50;;;10.90;99.90;;;;;;5099335;28;20257;-72
2022/01/03 00:35:59;;;;;;;2.80;2.03;;;10.80;99.90;;;;;;5101104;28;20197;-75
2022/01/03 00:38:28;;;;;;;6.17;2.57;;;10.90;99.90;;;;;;5085343;28;20224;-74
2022/01/03 00:40:55;;;;;;;9.37;2.50;;;10.90;99.90;;;;;;5101710;28;20239;-75
2022/01/03 00:43:22;;;;;;;4.57;1.83;;;10.80;99.90;;;;;;5097199;28;20196;-72
2022/01/03 00:45:52;;;;;;;3.97;2.20;;;10.70;99.90;;;;;;5095307;28;20701;-72
2022/01/03 00:48:19;;;;;;;4.53;2.10;;;10.70;99.90;;;;;;5099197;28;20275;-74
2022/01/03 00:50:47;;;;;;;6.20;2.10;;;10.70;99.90;;;;;;5096636;28;20250;-72
2022/01/03 00:53:14;;;;;;;5.03;2.23;;;10.80;99.90;;;;;;5095680;28;20249;-72
2022/01/03 00:56:01;;;;;;;3.57;2.00;;;10.80;99.90;;;;;;5095216;28;20196;-72
2022/01/03 00:58:33;;;;;;;5.30;2.53;;;10.80;99.90;;;;;;5087352;28;20282;-73
2022/01/03 01:01:01;;;;;;;6.30;2.30;;;10.80;99.90;;;;;;5095066;28;20228;-73
2022/01/03 01:03:33;;;;;;;3.20;1.70;;;10.80;99.90;;;;;;5094505;28;20188;-73
2022/01/03 01:06:03;;;;;;;5.47;2.33;;;10.90;99.90;;;;;;5094258;28;20192;-73
2022/01/03 01:08:31;;;;;;;3.20;1.87;;;11.00;99.90;;;;;;5094053;28;20218;-72
2022/01/03 01:11:02;;;;;;;7.60;2.07;;;10.90;99.90;;;;;;5094393;28;20249;-74
2022/01/03 01:13:28;;;;;;;4.30;1.80;;;10.80;99.90;;;;;;5094356;28;20188;-73
2022/01/03 01:15:55;;;;;;;8.37;2.47;;;10.90;99.90;;;;;;5094155;28;20245;-72
2022/01/03 01:18:23;;;;;;;5.23;1.70;;;11.00;99.90;;;;;;5094299;28;20193;-72
2022/01/03 01:20:50;;;;;;;4.67;2.03;;;11.00;99.90;;;;;;5094169;28;20220;-73
2022/01/03 01:23:17;;;;;;;6.47;2.03;;;11.10;99.90;;;;;;5093957;28;20203;-72
2022/01/03 01:28:29;;;;;;;4.73;2.07;;;11.10;99.90;;;;;;5100474;28;20251;-73
2022/01/03 01:30:58;;;;;;;4.30;1.60;;;11.10;99.90;;;;;;5100688;28;20204;-72
2022/01/03 01:33:30;;;;;;;3.60;1.50;;;11.30;99.90;;;;;;5100861;28;20200;-74
2022/01/03 01:36:02;;;;;;;2.93;1.60;;;11.30;99.90;;;;;;5101296;28;20196;-73
2022/01/03 01:38:31;;;;;;;4.87;1.63;;;11.30;99.90;;;;;;5098752;28;20590;-75
2022/01/03 01:41:00;;;;;;;2.97;1.30;;;11.20;99.90;;;;;;5094141;28;20223;-73
2022/01/03 01:43:35;;;;;;;6.17;1.97;;;11.20;99.90;;;;;;5085647;28;20537;-73
2022/01/03 01:46:05;;;;;;;4.43;1.80;;;11.30;99.90;;;;;;5093923;28;20271;-73
2022/01/03 01:48:36;;;;;;;4.07;1.73;;;11.20;99.90;;;;;;5094181;28;20192;-73
2022/01/03 01:51:03;;;;;;;4.97;1.70;;;11.20;99.90;;;;;;5093479;28;20192;-73
2022/01/03 01:53:30;;;;;;;2.70;1.50;;;11.10;99.90;;;;;;5093515;28;20189;-74
2022/01/03 01:55:59;;;;;;;5.03;1.90;;;11.30;99.90;;;;;;5093838;28;20618;-74
2022/01/03 01:58:30;;;;;;;4.40;2.07;;;11.20;99.90;;;;;;5093589;28;20192;-73
2022/01/03 02:01:01;;;;;;;9.07;2.03;;;11.20;99.90;;;;;;5093606;28;20232;-73
2022/01/03 02:03:39;;;;;;;4.47;1.80;;;11.20;99.90;;;;;;5093239;28;20215;-73
2022/01/03 02:06:34;;;;;;;7.07;2.23;;;11.30;99.90;;;;;;5092972;28;20691;-73
2022/01/03 02:09:05;;;;;;;5.37;1.90;;;11.20;99.90;;;;;;5087580;28;20189;-73
2022/01/03 02:11:44;;;;;;;7.47;2.17;;;11.30;99.90;;;;;;5093360;28;20245;-73
2022/01/03 02:14:11;;;;;;;7.23;2.63;;;11.30;99.90;;;;;;5093991;28;20241;-74
2022/01/03 02:16:39;;;;;;;6.37;1.90;;;11.20;99.90;;;;;;5093546;28;20666;-73
2022/01/03 02:19:06;;;;;;;5.57;2.00;;;11.30;99.90;;;;;;5093359;28;20200;-73
2022/01/03 02:21:34;;;;;;;5.87;1.80;;;11.20;99.90;;;;;;5078830;28;20219;-73
2022/01/03 02:24:01;;;;;;;7.10;1.40;;;11.20;99.90;;;;;;5093669;28;20192;-72
2022/01/03 02:26:29;;;;;;;1.80;1.10;;;8.50;99.90;;;;;;5092607;28;20720;-71
2022/01/03 02:28:56;;;;;;;2.47;1.10;;;7.20;99.90;;;;;;5093072;28;20648;-71
2022/01/03 02:31:23;;;;;;;1.53;0.93;;;6.80;99.90;;;;;;5092830;28;21194;-70
2022/01/03 02:33:50;;;;;;;2.07;0.90;;;6.60;99.90;;;;;;5093470;28;20188;-70
2022/01/03 02:36:17;;;;;;;3.33;1.07;;;6.60;99.90;;;;;;5093052;28;20598;-71
2022/01/03 02:38:46;;;;;;;2.33;1.00;;;6.60;99.90;;;;;;5092908;28;20193;-70
2022/01/03 02:41:13;;;;;;;1.53;0.97;;;6.60;99.90;;;;;;5092962;28;20212;-71
2022/01/03 02:43:40;;;;;;;0.93;0.80;;;6.60;99.90;;;;;;5092963;28;20717;-71
2022/01/03 02:46:06;;;;;;;2.73;1.10;;;6.60;99.90;;;;;;5092392;28;20777;-71
2022/01/03 02:48:33;;;;;;;3.90;1.10;;;6.60;99.90;;;;;;5092873;28;20214;-71
2022/01/03 02:51:00;;;;;;;2.77;1.20;;;6.70;99.90;;;;;;5092602;28;20644;-70
2022/01/03 02:53:26;;;;;;;1.00;0.90;;;6.60;99.90;;;;;;5093126;28;20237;-70
2022/01/03 02:55:55;;;;;;;2.33;1.03;;;6.50;99.90;;;;;;5093064;28;20521;-70
2022/01/03 02:58:21;;;;;;;0.70;0.70;;;6.40;99.90;;;;;;5092468;28;20197;-70
2022/01/03 03:00:51;;;;;;;3.53;1.00;;;6.30;99.90;;;;;;5092596;28;20232;-70
2022/01/03 03:03:20;;;;;;;1.27;1.00;;;6.30;99.90;;;;;;5092665;28;20287;-69
2022/01/03 03:05:47;;;;;;;4.43;1.10;;;6.10;99.90;;;;;;5093212;28;20192;-68
2022/01/03 03:08:15;;;;;;;1.97;1.00;;;6.00;99.90;;;;;;5093134;28;20196;-69
2022/01/03 03:10:42;;;;;;;3.40;1.10;;;6.00;99.90;;;;;;5092888;28;20275;-70
2022/01/03 03:13:10;;;;;;;3.67;1.10;;;5.90;99.90;;;;;;5092935;28;20200;-70
2022/01/03 03:15:37;;;;;;;1.83;0.83;;;5.90;99.90;;;;;;5093374;28;20188;-70
2022/01/03 03:18:04;;;;;;;1.23;0.83;;;5.90;99.90;;;;;;5093374;28;20185;-70
2022/01/03 03:20:33;;;;;;;2.37;1.00;;;5.90;99.90;;;;;;5093230;28;20721;-69
2022/01/03 03:23:00;;;;;;;2.27;1.00;;;5.90;99.90;;;;;;5092652;28;20277;-70
2022/01/03 03:25:29;;;;;;;2.63;1.10;;;5.90;99.90;;;;;;5075850;28;20197;-69
2022/01/03 03:27:57;;;;;;;2.83;1.50;;;5.90;99.90;;;;;;5092594;28;20192;-69
2022/01/03 03:30:27;;;;;;;1.97;1.23;;;5.80;99.90;;;;;;5092284;28;20192;-68
2022/01/03 03:32:56;;;;;;;3.17;1.20;;;5.80;99.90;;;;;;5092553;28;20246;-68
2022/01/03 03:35:24;;;;;;;3.63;1.30;;;5.80;99.90;;;;;;5092495;28;20200;-69
2022/01/03 03:37:50;;;;;;;2.80;1.20;;;5.70;99.90;;;;;;5095207;28;20199;-69
2022/01/03 03:40:17;;;;;;;3.53;1.20;;;5.70;99.90;;;;;;5099757;28;20193;-69
2022/01/03 03:42:44;;;;;;;5.97;1.40;;;5.70;99.90;;;;;;5096973;28;20234;-69
2022/01/03 03:45:12;;;;;;;5.23;1.50;;;5.70;99.90;;;;;;5079010;28;20842;-69
2022/01/03 03:47:40;;;;;;;6.17;1.57;;;5.80;99.90;;;;;;5096328;28;20209;-68
2022/01/03 03:50:08;;;;;;;2.70;1.57;;;5.80;99.90;;;;;;5096272;28;20192;-69
2022/01/03 03:52:35;;;;;;;3.13;1.47;;;5.80;99.90;;;;;;5095909;28;20253;-68
2022/01/03 03:55:02;;;;;;;7.47;1.63;;;5.90;99.90;;;;;;5096278;28;20195;-67
2022/01/03 03:57:30;;;;;;;4.00;1.43;;;5.80;99.90;;;;;;5095263;28;20200;-68
2022/01/03 03:59:56;;;;;;;2.80;1.20;;;5.80;99.90;;;;;;5096059;28;20200;-68
2022/01/03 04:02:23;;;;;;;5.73;1.40;;;5.80;99.90;;;;;;5095439;28;20232;-68
2022/01/03 04:04:51;;;;;;;3.70;1.40;;;5.80;99.90;;;;;;5095576;28;20204;-69
2022/01/03 04:07:18;;;;;;;2.37;1.23;;;5.80;99.90;;;;;;5095165;28;20224;-69
2022/01/03 04:09:45;;;;;;;3.23;1.33;;;5.90;99.90;;;;;;5095422;28;20226;-69
2022/01/03 04:12:12;;;;;;;2.73;1.73;;;6.00;99.90;;;;;;5095697;28;20208;-69
2022/01/03 04:14:38;;;;;;;3.90;1.10;;;6.00;99.90;;;;;;5095657;28;20192;-68
2022/01/03 04:17:05;;;;;;;1.77;1.20;;;6.00;99.90;;;;;;5095530;28;20602;-69
2022/01/03 04:19:32;;;;;;;6.23;1.20;;;6.00;99.90;;;;;;5095245;28;20223;-69
2022/01/03 04:21:59;;;;;;;6.53;1.63;;;5.90;99.90;;;;;;5095208;28;20216;-69
2022/01/03 04:24:26;;;;;;;4.50;1.23;;;5.90;99.90;;;;;;5095602;28;20211;-70
2022/01/03 04:26:53;;;;;;;4.20;1.30;;;5.90;99.90;;;;;;5095130;28;20192;-69
2022/01/03 04:29:21;;;;;;;3.03;1.40;;;6.00;99.90;;;;;;5095165;28;20884;-69
2022/01/03 04:31:47;;;;;;;2.73;1.17;;;6.00;99.90;;;;;;5095245;28;20610;-69
2022/01/03 04:34:14;;;;;;;5.73;1.30;;;5.90;99.90;;;;;;5094715;28;20529;-68
2022/01/03 04:36:41;;;;;;;4.40;1.20;;;5.90;99.90;;;;;;5095021;28;20537;-68
2022/01/03 04:39:09;;;;;;;3.53;1.30;;;5.90;99.90;;;;;;5094917;28;20188;-69
2022/01/03 04:41:36;;;;;;;4.27;1.60;;;5.90;99.90;;;;;;5095835;28;20212;-69
2022/01/03 04:44:05;;;;;;;2.07;1.10;;;5.90;99.90;;;;;;5096974;28;20242;-69
2022/01/03 04:46:33;;;;;;;2.97;1.30;;;6.00;99.90;;;;;;5099960;28;20192;-70
2022/01/03 04:49:00;;;;;;;3.97;1.40;;;6.00;99.90;;;;;;5100484;28;20216;-71
2022/01/03 04:51:27;;;;;;;4.83;1.20;;;5.90;99.90;;;;;;5101147;28;20192;-70
2022/01/03 04:53:54;;;;;;;3.87;1.30;;;5.90;99.90;;;;;;5101480;28;20590;-70
2022/01/03 04:56:22;;;;;;;3.10;1.10;;;5.90;99.90;;;;;;5102206;28;20203;-70
2022/01/03 04:58:48;;;;;;;4.70;1.30;;;5.90;99.90;;;;;;5098996;28;20185;-70
2022/01/03 05:01:15;;;;;;;2.20;1.13;;;5.90;99.90;;;;;;5095037;28;20228;-69
2022/01/03 05:03:42;;;;;;;2.23;1.30;;;5.80;99.90;;;;;;5095063;28;20196;-70
2022/01/03 05:06:08;;;;;;;4.03;1.27;;;5.80;99.90;;;;;;5094600;28;20196;-70
2022/01/03 05:08:35;;;;;;;2.00;1.17;;;5.80;99.90;;;;;;5095508;28;20192;-70
2022/01/03 05:11:02;;;;;;;2.33;1.27;;;5.80;99.90;;;;;;5094712;28;20193;-69
2022/01/03 05:13:31;;;;;;;2.93;1.30;;;5.70;99.90;;;;;;5094644;28;20196;-70
2022/01/03 05:15:58;;;;;;;2.03;1.40;;;5.70;99.90;;;;;;5094236;28;20193;-70
2022/01/03 05:18:25;;;;;;;3.20;1.30;;;5.70;99.90;;;;;;5094377;28;20195;-70
2022/01/03 05:20:51;;;;;;;7.43;1.73;;;5.70;99.90;;;;;;5094150;28;20269;-70
2022/01/03 05:23:19;;;;;;;3.23;1.20;;;5.60;99.90;;;;;;5094480;28;20629;-70
2022/01/03 05:25:46;;;;;;;3.33;1.30;;;5.60;99.90;;;;;;5094686;28;20195;-70
2022/01/03 05:28:13;;;;;;;2.23;1.30;;;5.60;99.90;;;;;;5095477;28;20193;-71
2022/01/03 05:30:41;;;;;;;2.57;1.40;;;5.60;99.90;;;;;;5094442;28;20652;-70
2022/01/03 05:33:08;;;;;;;1.50;1.40;;;5.60;99.90;;;;;;5093788;28;20675;-70
2022/01/03 05:35:35;;;;;;;2.70;1.60;;;5.60;99.90;;;;;;5094229;28;20639;-70
2022/01/03 05:38:02;;;;;;;4.07;1.60;;;5.60;99.90;;;;;;5093977;28;20196;-71
2022/01/03 05:40:28;;;;;;;2.40;1.43;;;5.60;99.90;;;;;;5083980;28;20204;-70
2022/01/03 05:42:55;;;;;;;3.53;1.30;;;5.60;99.90;;;;;;5093825;28;20265;-70
2022/01/03 05:45:22;;;;;;;3.33;1.57;;;5.60;99.90;;;;;;5093618;28;20660;-70
2022/01/03 05:47:51;;;;;;;3.07;1.30;;;5.60;99.90;;;;;;5093854;28;20207;-70
2022/01/03 05:50:18;;;;;;;1.80;1.33;;;5.60;99.90;;;;;;5094252;28;20249;-70
2022/01/03 05:52:45;;;;;;;3.47;1.50;;;5.60;99.90;;;;;;5093713;28;20222;-70
2022/01/03 05:55:13;;;;;;;2.57;1.20;;;5.50;99.90;;;;;;5093443;28;20655;-70
2022/01/03 05:57:40;;;;;;;3.00;1.50;;;5.50;99.90;;;;;;5093241;28;20644;-70
2022/01/03 06:00:11;;;;;;;4.10;1.60;;;5.50;99.90;;;;;;5093452;28;20184;-71
2022/01/03 06:02:41;;;;;;;3.30;1.43;;;5.50;99.90;;;;;;5093448;28;20228;-71
2022/01/03 06:05:17;;;;;;;3.73;1.50;;;5.60;99.90;;;;;;5094448;28;20275;-71
2022/01/03 06:07:44;;;;;;;6.03;1.80;;;5.60;99.90;;;;;;5093782;28;20276;-71
2022/01/03 06:10:15;;;;;;;4.97;1.80;;;5.70;99.90;;;;;;5094085;28;20204;-71
2022/01/03 06:12:42;;;;;;;6.60;2.10;;;5.80;99.90;;;;;;5098200;28;20204;-72
2022/01/03 06:15:09;;;;;;;7.73;2.27;;;5.80;99.90;;;;;;5097817;28;20648;-71
2022/01/03 06:17:36;;;;;;;6.83;2.20;;;5.80;99.90;;;;;;5098440;28;20225;-71
2022/01/03 06:20:02;;;;;;;9.67;3.20;;;5.90;99.90;;;;;;5098712;28;20586;-71
2022/01/03 06:22:30;;;;;;;8.83;2.80;;;6.00;99.90;;;;;;5082041;28;20224;-71
2022/01/03 06:24:57;;;;;;;7.87;2.20;;;6.00;99.90;;;;;;5097470;28;20606;-71
2022/01/03 06:27:23;;;;;;;8.20;2.30;;;6.00;99.90;;;;;;5094141;28;20259;-70
2022/01/03 06:29:50;;;;;;;7.13;2.40;;;6.00;99.90;;;;;;5093909;28;20197;-70
2022/01/03 06:32:17;;;;;;;7.27;2.83;;;6.00;99.90;;;;;;5093216;28;20246;-70
2022/01/03 06:34:43;;;;;;;22.87;14.87;;;6.10;99.90;;;;;;5093114;28;20184;-70
2022/01/03 06:37:10;;;;;;;13.00;3.97;;;6.10;99.90;;;;;;5092604;28;20204;-70
2022/01/03 06:39:38;;;;;;;8.50;4.10;;;6.20;99.90;;;;;;5093367;28;20285;-71
2022/01/03 06:42:05;;;;;;;8.40;3.20;;;6.30;99.90;;;;;;5093014;28;20216;-71
2022/01/03 06:44:32;;;;;;;12.80;3.03;;;6.40;99.90;;;;;;5084862;28;20537;-71
2022/01/03 06:46:59;;;;;;;12.87;3.60;;;6.50;99.90;;;;;;5092803;28;20796;-70
2022/01/03 06:49:25;;;;;;;11.87;2.47;;;6.60;99.90;;;;;;5092980;28;20218;-71
2022/01/03 06:51:52;;;;;;;10.23;3.20;;;6.70;99.90;;;;;;5093052;28;20238;-70
2022/01/03 06:54:18;;;;;;;13.33;4.13;;;6.80;99.90;;;;;;5092884;28;20196;-71
2022/01/03 06:56:46;;;;;;;12.67;3.73;;;6.90;99.90;;;;;;5092692;28;20196;-71
2022/01/03 06:59:13;;;;;;;11.00;2.93;;;6.90;99.90;;;;;;5092971;28;20193;-70
2022/01/03 07:01:40;;;;;;;8.97;2.80;;;6.90;99.90;;;;;;5093270;28;20225;-72
2022/01/03 07:04:07;;;;;;;7.57;3.20;;;6.90;99.90;;;;;;5092522;28;20223;-70
2022/01/03 07:06:36;;;;;;;8.50;3.23;;;6.90;99.90;;;;;;5092977;28;20532;-70
2022/01/03 07:09:05;;;;;;;16.23;3.37;;;7.00;99.90;;;;;;5092785;28;20246;-71
2022/01/03 07:11:32;;;;;;;7.80;3.00;;;7.10;99.90;;;;;;5093072;28;20609;-71
2022/01/03 07:18:55;;;;;;;8.97;2.60;;;7.30;99.90;;;;;;5096452;28;20198;-71
2022/01/03 07:19:38;;;;;;;11.10;2.60;;;7.30;99.90;;;;;;5096757;28;20223;-70
2022/01/03 07:22:05;;;;;;;10.67;2.80;;;7.50;99.90;;;;;;5096576;28;20184;-70
2022/01/03 07:24:32;;;;;;;6.70;2.33;;;7.60;99.90;;;;;;5096649;28;20552;-71
2022/01/03 07:27:01;;;;;;;9.70;3.17;;;7.70;99.90;;;;;;5096481;28;20207;-71
2022/01/03 07:29:30;;;;;;;7.50;2.20;;;7.80;99.90;;;;;;5096398;28;20614;-71
2022/01/03 07:31:57;;;;;;;7.33;2.63;;;7.90;99.90;;;;;;5096388;28;20590;-71
2022/01/03 07:34:24;;;;;;;11.80;2.53;;;8.00;99.90;;;;;;5096703;28;20200;-72
2022/01/03 07:36:51;;;;;;;5.90;1.93;;;8.10;99.90;;;;;;5096105;28;20192;-71
2022/01/03 07:39:18;;;;;;;4.83;1.87;;;8.10;99.90;;;;;;5096269;28;20660;-71
2022/01/03 07:41:45;;;;;;;9.97;2.53;;;8.10;99.90;;;;;;5096364;28;20199;-70
2022/01/03 07:44:12;;;;;;;7.67;2.70;;;8.20;99.90;;;;;;5096401;28;20286;-72
2022/01/03 07:46:40;;;;;;;7.03;2.23;;;8.10;99.90;;;;;;5096105;28;20185;-70
2022/01/03 07:49:07;;;;;;;6.93;2.30;;;8.40;99.90;;;;;;5096190;28;20189;-72
2022/01/03 07:51:34;;;;;;;5.63;2.00;;;8.30;99.90;;;;;;5095821;28;20545;-71
2022/01/03 07:54:01;;;;;;;11.60;2.20;;;8.30;99.90;;;;;;5096553;28;20254;-71
2022/01/03 07:56:27;;;;;;;10.70;3.07;;;8.30;99.90;;;;;;5096037;28;20548;-70
2022/01/03 07:58:54;;;;;;;11.40;3.10;;;8.40;99.90;;;;;;5097075;28;20192;-72
2022/01/03 08:01:22;;;;;;;9.27;2.70;;;8.30;99.90;;;;;;5096210;28;20224;-70
2022/01/03 08:03:50;;;;;;;7.43;2.47;;;8.30;99.90;;;;;;5096463;28;20220;-72
2022/01/03 08:06:16;;;;;;;7.40;2.60;;;8.30;99.90;;;;;;5100108;28;20198;-72
2022/01/03 08:08:43;;;;;;;8.83;2.37;;;8.20;99.90;;;;;;5103068;28;20197;-73
2022/01/03 08:11:10;;;;;;;7.07;2.00;;;8.20;99.90;;;;;;5102683;28;20195;-73
2022/01/03 08:13:36;;;;;;;13.37;2.47;;;8.30;99.90;;;;;;5104540;28;20188;-73
2022/01/03 08:16:04;;;;;;;8.90;2.60;;;8.30;99.90;;;;;;5104641;28;20196;-71
2022/01/03 08:18:32;;;;;;;12.83;3.40;;;8.30;99.90;;;;;;5103459;28;20583;-73
2022/01/03 08:21:00;;;;;;;7.73;2.30;;;8.40;99.90;;;;;;5099630;28;20249;-71
2022/01/03 08:23:27;;;;;;;9.43;2.40;;;8.40;99.90;;;;;;5094976;28;20220;-71
2022/01/03 08:25:54;;;;;;;9.77;3.00;;;8.40;99.90;;;;;;5094951;28;20233;-71
2022/01/03 08:28:21;;;;;;;9.73;2.67;;;8.50;99.90;;;;;;5095280;28;20208;-72
2022/01/03 08:30:47;;;;;;;8.30;2.33;;;8.40;99.90;;;;;;5095436;28;20234;-72
2022/01/03 08:33:14;;;;;;;6.60;2.40;;;8.50;99.90;;;;;;5095367;28;20204;-72
2022/01/03 08:35:41;;;;;;;8.43;2.50;;;8.50;99.90;;;;;;5095005;28;20242;-72
2022/01/03 08:38:08;;;;;;;12.50;3.17;;;8.50;99.90;;;;;;5095302;28;20246;-71
2022/01/03 08:40:35;;;;;;;8.00;2.30;;;8.50;99.90;;;;;;5095061;28;20258;-72
2022/01/03 08:43:02;;;;;;;9.70;5.13;;;8.50;99.90;;;;;;5094721;28;20220;-71
2022/01/03 08:45:29;;;;;;;11.40;4.13;;;8.60;99.90;;;;;;5095150;28;20193;-72
2022/01/03 08:47:55;;;;;;;13.50;2.97;;;8.60;99.90;;;;;;5095149;28;20218;-71
2022/01/03 08:50:22;;;;;;;6.87;2.50;;;8.70;99.90;;;;;;5097705;28;20250;-72
2022/01/03 08:52:49;;;;;;;12.47;4.10;;;8.70;99.90;;;;;;5094641;28;20196;-72
2022/01/03 08:55:19;;;;;;;8.50;3.40;;;8.80;99.90;;;;;;5094838;28;20246;-72
2022/01/03 08:57:51;;;;;;;11.73;3.37;;;8.80;99.90;;;;;;5094659;28;20207;-72
2022/01/03 09:00:18;;;;;;;6.47;2.70;;;8.80;99.90;;;;;;5085104;28;20196;-71
2022/01/03 09:02:46;;;;;;;10.37;3.50;;;8.80;99.90;;;;;;5094536;28;20232;-71
2022/01/03 09:05:12;;;;;;;10.13;3.83;;;8.80;99.90;;;;;;5094440;28;20193;-72
2022/01/03 09:07:39;;;;;;;9.50;3.30;;;8.80;99.90;;;;;;5094723;28;20196;-71
2022/01/03 09:10:07;;;;;;;9.47;3.60;;;8.90;99.90;;;;;;5093831;28;20218;-71
2022/01/03 09:12:35;;;;;;;8.07;2.97;;;8.90;99.90;;;;;;5094514;28;20213;-71
2022/01/03 09:15:02;;;;;;;11.87;3.30;;;8.90;99.90;;;;;;5094441;28;20192;-71
2022/01/03 09:17:29;;;;;;;8.67;2.90;;;9.00;99.90;;;;;;5094051;28;20238;-71
2022/01/03 09:19:56;;;;;;;9.27;2.40;;;9.00;99.90;;;;;;5094463;28;20184;-71
2022/01/03 09:22:28;;;;;;;7.57;3.73;;;9.00;99.90;;;;;;5094193;28;20663;-71
2022/01/03 09:28:48;;;;;;;6.43;2.33;;;9.00;99.90;;;;;;5094092;28;20234;-71
2022/01/03 09:30:29;;;;;;;5.57;2.63;;;9.00;99.90;;;;;;5093969;28;20199;-72
2022/01/03 09:32:56;;;;;;;8.13;2.60;;;9.00;99.90;;;;;;5094004;28;20659;-72
2022/01/03 09:35:23;;;;;;;8.23;2.80;;;9.00;99.90;;;;;;5094375;28;20200;-72
2022/01/03 09:37:50;;;;;;;9.23;2.90;;;8.90;99.90;;;;;;5094661;28;20188;-72
2022/01/03 09:40:17;;;;;;;12.30;4.30;;;8.90;99.90;;;;;;5095075;28;20192;-72
2022/01/03 09:42:50;;;;;;;12.00;3.90;;;8.80;99.90;;;;;;5096553;28;20548;-72
2022/01/03 09:45:16;;;;;;;9.33;2.60;;;8.60;99.90;;;;;;5096783;28;20192;-73
2022/01/03 09:47:45;;;;;;;8.67;2.50;;;8.50;99.90;;;;;;5096875;28;20192;-73
2022/01/03 09:50:16;;;;;;;7.10;2.70;;;8.40;99.90;;;;;;5096034;28;20198;-72
2022/01/03 09:52:44;;;;;;;7.40;2.90;;;8.40;99.90;;;;;;5095595;28;20639;-71
2022/01/03 09:55:11;;;;;;;7.37;2.57;;;8.40;99.90;;;;;;5095370;28;20207;-72
2022/01/03 09:57:38;;;;;;;12.83;4.03;;;8.40;99.90;;;;;;5096261;28;20253;-71
2022/01/03 10:00:09;;;;;;;8.93;3.20;;;8.30;99.90;;;;;;5096024;28;20217;-70
2022/01/03 10:02:36;;;;;;;6.40;2.60;;;8.20;99.90;;;;;;5094003;28;20266;-71
2022/01/03 10:05:05;;;;;;;8.00;2.80;;;8.00;99.90;;;;;;5093809;28;20216;-72
2022/01/03 10:07:33;;;;;;;8.73;2.57;;;7.90;99.90;;;;;;5094063;28;20193;-70
2022/01/03 10:10:01;;;;;;;7.73;2.27;;;7.90;99.90;;;;;;5093728;28;20192;-70
2022/01/03 10:12:28;;;;;;;7.10;2.10;;;7.90;99.90;;;;;;5093512;28;20188;-70
2022/01/03 10:14:55;;;;;;;5.80;2.30;;;7.90;99.90;;;;;;5093752;28;20192;-71
2022/01/03 10:17:23;;;;;;;6.93;2.33;;;7.90;99.90;;;;;;5093460;28;20633;-70
2022/01/03 10:19:53;;;;;;;4.50;1.80;;;7.90;99.90;;;;;;5093813;28;20192;-71
2022/01/03 10:22:22;;;;;;;6.70;2.03;;;7.90;99.90;;;;;;5093252;28;20195;-70
2022/01/03 10:24:48;;;;;;;4.63;1.80;;;7.90;99.90;;;;;;5093639;28;20299;-70
2022/01/03 10:27:15;;;;;;;8.83;2.30;;;8.00;99.90;;;;;;5093496;28;20196;-70
2022/01/03 10:29:42;;;;;;;4.47;2.17;;;8.10;99.90;;;;;;5093686;28;20188;-73
2022/01/03 10:32:12;;;;;;;6.60;2.27;;;8.10;99.90;;;;;;5093483;28;20184;-70
2022/01/03 10:34:40;;;;;;;5.63;1.83;;;8.10;99.90;;;;;;5093656;28;20207;-70
2022/01/03 10:37:12;;;;;;;5.97;2.10;;;8.10;99.90;;;;;;5093338;28;20283;-71
2022/01/03 10:39:38;;;;;;;8.67;2.23;;;8.10;99.90;;;;;;5095739;28;20191;-70
2022/01/03 10:42:17;;;;;;;8.53;2.40;;;8.10;99.90;;;;;;5095697;28;20253;-70
2022/01/03 10:44:44;;;;;;;6.43;2.23;;;8.20;99.90;;;;;;5095333;28;20271;-70
2022/01/03 10:47:15;;;;;;;6.73;2.20;;;8.20;99.90;;;;;;5095144;28;20201;-71
2022/01/03 10:49:44;;;;;;;5.07;2.00;;;8.20;99.90;;;;;;5093352;28;20199;-70
2022/01/03 10:52:23;;;;;;;5.80;1.90;;;8.30;99.90;;;;;;5099867;28;20678;-70
2022/01/03 10:55:10;;;;;;;8.27;2.47;;;8.30;99.90;;;;;;5099587;28;20277;-70
2022/01/03 10:57:52;;;;;;;5.07;2.13;;;8.40;99.90;;;;;;5083800;28;20192;-70
2022/01/03 11:00:23;;;;;;;8.03;2.73;;;8.40;99.90;;;;;;5099077;28;20234;-70
2022/01/03 11:03:25;;;;;;;6.23;1.90;;;8.50;99.90;;;;;;5099233;28;20281;-71
2022/01/03 11:05:56;;;;;;;10.17;2.63;;;8.50;99.90;;;;;;5086090;28;20202;-71
2022/01/03 11:11:12;;;;;;;5.60;2.57;;;8.70;99.90;;;;;;5097290;28;20279;-72
2022/01/03 11:13:40;;;;;;;7.20;2.57;;;8.60;99.90;;;;;;5098368;28;20220;-71
2022/01/03 11:16:09;;;;;;;8.07;2.60;;;8.60;99.90;;;;;;5097747;28;20215;-71
2022/01/03 11:18:37;;;;;;;8.33;2.40;;;8.60;99.90;;;;;;5098550;28;20192;-72
2022/01/03 11:21:13;;;;;;;6.63;2.20;;;8.60;99.90;;;;;;5098513;28;20188;-72
2022/01/03 11:23:42;;;;;;;6.27;2.40;;;8.60;99.90;;;;;;5099080;28;20279;-73
2022/01/03 11:26:11;;;;;;;7.40;2.70;;;8.60;99.90;;;;;;5102245;28;20192;-77
2022/01/03 11:28:39;;;;;;;11.33;3.53;;;8.60;99.90;;;;;;5101469;28;20222;-72
2022/01/03 11:31:06;;;;;;;6.83;2.93;;;8.60;99.90;;;;;;5099825;28;20215;-72
2022/01/03 11:33:34;;;;;;;7.37;2.40;;;8.60;99.90;;;;;;5100779;28;20189;-72
2022/01/03 11:36:02;;;;;;;11.40;2.80;;;8.50;99.90;;;;;;5100832;28;20200;-70
2022/01/03 11:38:31;;;;;;;11.50;3.07;;;8.50;99.90;;;;;;5100102;28;20279;-72
2022/01/03 11:41:00;;;;;;;11.97;3.80;;;8.50;99.90;;;;;;5101015;28;20226;-71
2022/01/03 11:43:29;;;;;;;13.30;3.40;;;8.60;99.90;;;;;;5099997;28;20228;-70
2022/01/03 11:45:56;;;;;;;11.60;3.70;;;8.60;99.90;;;;;;5098690;28;20283;-72
2022/01/03 11:48:24;;;;;;;9.97;3.17;;;8.60;99.90;;;;;;5098681;28;20201;-72
2022/01/03 11:50:52;;;;;;;9.33;3.10;;;8.60;99.90;;;;;;5098887;28;20316;-72
2022/01/03 11:53:22;;;;;;;12.70;3.50;;;8.60;99.90;;;;;;5098261;28;20551;-70
2022/01/03 11:55:53;;;;;;;12.07;4.63;;;8.70;99.90;;;;;;5096250;28;20619;-71
2022/01/03 11:58:50;;;;;;;8.57;3.50;;;8.80;99.90;;;;;;5096975;28;20610;-74
2022/01/03 12:04:09;;;;;;;10.90;3.20;;;8.70;99.90;;;;;;5099819;28;20595;-74
2022/01/03 12:06:36;;;;;;;8.57;2.87;;;8.70;99.90;;;;;;5101125;28;20644;-74
2022/01/03 12:09:07;;;;;;;8.97;3.27;;;8.80;99.90;;;;;;5099814;28;20189;-71
2022/01/03 12:11:41;;;;;;;7.80;3.20;;;8.80;99.90;;;;;;5098691;28;20195;-71
2022/01/03 12:14:10;;;;;;;8.80;3.90;;;8.90;99.90;;;;;;5097764;28;20218;-71
2022/01/03 12:16:40;;;;;;;11.47;3.50;;;8.90;99.90;;;;;;5096867;28;20727;-71
2022/01/03 12:19:10;;;;;;;10.57;3.23;;;9.00;99.90;;;;;;5095707;28;20200;-72
2022/01/03 12:21:58;;;;;;;10.50;3.30;;;8.90;99.90;;;;;;5098004;28;20192;-72
2022/01/03 12:24:51;;;;;;;6.27;2.40;;;9.00;99.90;;;;;;5100404;28;20665;-72
2022/01/03 12:27:32;;;;;;;10.47;2.70;;;9.00;99.90;;;;;;5098984;28;20525;-72
2022/01/03 12:30:16;;;;;;;6.67;2.40;;;9.00;99.90;;;;;;5100325;28;20218;-72
2022/01/03 12:32:45;;;;;;;9.17;2.43;;;9.00;99.90;;;;;;5097352;28;20192;-72
2022/01/03 12:35:23;;;;;;;8.47;2.50;;;9.00;99.90;;;;;;5095250;28;20295;-72
2022/01/03 12:38:27;;;;;;;8.93;2.47;;;9.00;99.90;;;;;;5095815;28;20593;-72
2022/01/03 12:41:02;;;;;;;7.37;2.70;;;9.00;99.90;;;;;;5095659;28;20238;-73
2022/01/03 12:43:45;;;;;;;8.43;3.20;;;9.00;99.90;;;;;;5095542;28;20196;-73
2022/01/03 12:46:29;;;;;;;8.73;2.83;;;8.90;99.90;;;;;;5095234;28;20655;-72
2022/01/03 12:48:56;;;;;;;7.20;2.63;;;8.90;99.90;;;;;;5095599;28;20188;-72
2022/01/03 12:51:35;;;;;;;8.93;2.83;;;8.90;99.90;;;;;;5095175;28;20199;-73
2022/01/03 12:54:03;;;;;;;7.77;2.60;;;8.80;99.90;;;;;;5095189;28;20197;-72
2022/01/03 12:56:33;;;;;;;8.30;2.90;;;8.90;99.90;;;;;;5094684;28;20200;-73
2022/01/03 12:59:15;;;;;;;9.30;3.10;;;8.90;99.90;;;;;;5094410;28;20592;-73
2022/01/03 13:01:42;;;;;;;7.60;2.87;;;8.90;99.90;;;;;;5094549;28;20711;-72
2022/01/03 13:04:25;;;;;;;10.70;2.90;;;8.90;99.90;;;;;;5094061;28;20216;-73
2022/01/03 13:07:00;;;;;;;10.80;3.07;;;9.00;99.90;;;;;;5080954;28;20190;-72
2022/01/03 13:09:27;;;;;;;9.07;3.27;;;9.10;99.90;;;;;;5093961;28;20192;-72
2022/01/03 13:11:56;;;;;;;11.23;3.23;;;9.10;99.90;;;;;;5093665;28;20196;-72
2022/01/03 13:14:25;;;;;;;9.67;2.87;;;9.00;99.90;;;;;;5094143;28;20234;-72
2022/01/03 13:16:55;;;;;;;8.90;3.20;;;9.00;99.90;;;;;;5093940;28;20231;-72